FR-0077 weather

Centre Hospitalier Heliport
Pontarlier, Franche-Comté, France

Public forecast

Using degrees Celsius for public forecast. Weather courtesy of forecast.io.

METAR (pilot weather report)

Closest report is Les Eplatures Airport, 20.9 nm (38.7 km) ENE. Retrieved 2019/07/24 02:20 UTC (0 seconds ago):

LSGC 240220Z AUTO 00000KT CAVOK 16/13 Q1022

TAF (pilot weather forecast)

Forecast is more than 6 hours old.

Closest forecast is Payerne Air Base, 23.1 nm (42.7 km) E. Retrieved 2019/07/23 17:00 UTC (9 hours ago):

TAF LSMP 231625Z 2317/2423 VRB03KT CAVOK